Time;durP1;ratioP1;P1;durP2;ratioP2;P2;SDS_P1;SDS_P2;PMS_P1;PMS_P2;Temp;Humidity;BMP_temperature;BMP_pressure;BME280_temperature;BME280_humidity;BME280_pressure;Samples;Min_cycle;Max_cycle;Signal;HPM_P1;HPM_P2
2023/04/14 00:01:44;;;;;;;10.32;3.45;;;9.50;67.30;;;;;;5040868;28;20029;-62
2023/04/14 00:04:10;;;;;;;10.02;3.95;;;9.40;67.30;;;;;;5043512;28;20490;-63
2023/04/14 00:06:36;;;;;;;8.57;3.70;;;9.40;67.40;;;;;;5033541;28;20335;-63
2023/04/14 00:09:02;;;;;;;9.77;3.65;;;9.40;67.40;;;;;;5034598;28;20079;-63
2023/04/14 00:11:27;;;;;;;8.23;3.35;;;9.40;67.40;;;;;;5032317;28;20477;-62
2023/04/14 00:13:55;;;;;;;8.15;3.33;;;9.40;67.50;;;;;;5034370;28;20052;-62
2023/04/14 00:16:21;;;;;;;10.05;4.10;;;9.30;67.40;;;;;;5033779;28;20066;-63
2023/04/14 00:18:46;;;;;;;10.02;3.88;;;9.40;67.50;;;;;;5034978;28;20068;-62
2023/04/14 00:21:12;;;;;;;10.35;4.72;;;9.30;67.50;;;;;;5014746;28;20030;-62
2023/04/14 00:23:38;;;;;;;10.18;4.03;;;9.30;67.50;;;;;;5004650;28;20415;-63
2023/04/14 00:26:04;;;;;;;10.50;4.60;;;9.30;67.50;;;;;;5028078;28;20021;-62
2023/04/14 00:28:30;;;;;;;8.15;4.40;;;9.30;67.60;;;;;;5030935;28;20362;-62
2023/04/14 00:30:55;;;;;;;9.90;4.13;;;9.20;67.60;;;;;;5033992;28;20060;-63
2023/04/14 00:33:23;;;;;;;9.65;4.70;;;9.20;67.70;;;;;;5033841;28;20033;-63
2023/04/14 00:35:49;;;;;;;10.90;4.05;;;9.20;67.80;;;;;;5034138;28;20112;-62
2023/04/14 00:38:14;;;;;;;9.30;4.80;;;9.20;67.80;;;;;;5032858;28;20112;-62
2023/04/14 00:40:40;;;;;;;9.60;4.78;;;9.10;67.90;;;;;;5017158;28;20013;-62
2023/04/14 00:43:06;;;;;;;9.30;4.18;;;9.10;68.00;;;;;;5033399;28;20025;-62
2023/04/14 00:45:43;;;;;;;8.02;3.80;;;9.00;68.10;;;;;;5034565;28;20506;-62
2023/04/14 00:48:10;;;;;;;9.77;3.58;;;9.00;68.10;;;;;;5032973;28;20335;-62
2023/04/14 00:50:35;;;;;;;8.18;3.65;;;9.00;68.20;;;;;;5020363;28;20051;-62
2023/04/14 00:53:01;;;;;;;8.52;3.40;;;9.00;68.20;;;;;;5032228;28;20454;-62
2023/04/14 00:55:28;;;;;;;6.93;3.00;;;8.90;68.30;;;;;;5033930;28;20087;-62
2023/04/14 00:57:54;;;;;;;10.25;3.60;;;8.90;68.30;;;;;;5031706;28;20339;-63
2023/04/14 01:00:20;;;;;;;8.55;3.25;;;8.90;68.40;;;;;;5034167;28;20028;-62
2023/04/14 01:02:46;;;;;;;8.82;3.30;;;8.90;68.40;;;;;;5032205;28;20087;-62
2023/04/14 01:05:12;;;;;;;7.45;3.25;;;8.80;68.40;;;;;;5034985;28;20082;-63
2023/04/14 01:07:38;;;;;;;9.00;3.13;;;8.80;68.40;;;;;;5031347;28;20438;-62
2023/04/14 01:10:06;;;;;;;9.10;2.88;;;8.80;68.40;;;;;;5032928;28;20026;-63
2023/04/14 01:12:45;;;;;;;9.18;3.17;;;8.80;68.40;;;;;;5032118;28;20108;-62
2023/04/14 01:15:34;;;;;;;6.68;2.40;;;8.80;68.50;;;;;;5033496;28;20083;-62
2023/04/14 01:18:16;;;;;;;10.38;2.88;;;8.70;68.40;;;;;;5031236;28;20057;-63
2023/04/14 01:20:58;;;;;;;7.60;3.10;;;8.70;68.50;;;;;;5035170;28;20045;-62
2023/04/14 01:23:33;;;;;;;9.38;2.70;;;8.70;68.60;;;;;;5032661;28;20030;-63
2023/04/14 01:26:11;;;;;;;8.90;2.97;;;8.60;68.60;;;;;;5032721;28;20534;-62
2023/04/14 01:28:59;;;;;;;10.02;3.00;;;8.60;68.60;;;;;;5035515;28;20026;-62
2023/04/14 01:31:47;;;;;;;8.65;3.30;;;8.60;68.70;;;;;;5027755;28;20053;-63
2023/04/14 01:34:22;;;;;;;6.20;2.63;;;8.60;68.60;;;;;;5032793;28;20060;-65
2023/04/14 01:37:07;;;;;;;8.73;3.25;;;8.50;68.70;;;;;;5032646;28;20025;-62
2023/04/14 01:39:40;;;;;;;8.07;3.28;;;8.50;68.70;;;;;;5040750;28;20166;-62
2023/04/14 01:42:10;;;;;;;8.30;3.15;;;8.50;68.80;;;;;;5034925;28;20033;-63
2023/04/14 01:44:39;;;;;;;8.23;3.40;;;8.40;68.80;;;;;;5045190;28;20103;-62
2023/04/14 01:47:08;;;;;;;8.77;3.17;;;8.40;68.80;;;;;;5032469;28;20042;-63
2023/04/14 01:49:37;;;;;;;7.15;2.85;;;8.50;68.90;;;;;;5018856;28;20037;-62
2023/04/14 01:52:10;;;;;;;6.45;2.78;;;8.40;68.90;;;;;;5045282;28;20123;-63
2023/04/14 01:54:38;;;;;;;7.15;2.70;;;8.40;68.90;;;;;;5031646;28;20021;-63
2023/04/14 01:57:05;;;;;;;7.00;3.00;;;8.40;68.80;;;;;;5039117;28;20025;-62
2023/04/14 01:59:33;;;;;;;8.73;2.95;;;8.40;68.90;;;;;;5035883;28;20077;-62
2023/04/14 02:02:02;;;;;;;8.23;3.35;;;8.40;69.00;;;;;;5035369;28;20057;-62
2023/04/14 02:04:29;;;;;;;7.50;3.20;;;8.30;69.00;;;;;;5036266;28;20033;-62
2023/04/14 02:06:59;;;;;;;8.98;3.25;;;8.30;69.10;;;;;;5039100;28;20466;-64
2023/04/14 02:09:28;;;;;;;7.53;3.63;;;8.30;69.20;;;;;;5038405;28;20041;-62
2023/04/14 02:11:54;;;;;;;8.27;3.25;;;8.30;69.20;;;;;;5044203;28;20151;-62
2023/04/14 02:14:23;;;;;;;8.05;3.17;;;8.20;69.10;;;;;;5037811;28;20400;-63
2023/04/14 02:16:51;;;;;;;9.80;3.10;;;8.20;69.20;;;;;;5038325;28;20112;-63
2023/04/14 02:19:19;;;;;;;8.00;3.08;;;8.20;69.20;;;;;;5031128;28;20420;-62
2023/04/14 02:21:48;;;;;;;6.00;3.00;;;8.20;69.20;;;;;;5043013;28;20109;-62
2023/04/14 02:24:14;;;;;;;11.50;3.85;;;8.20;69.30;;;;;;5037348;28;20044;-63
2023/04/14 02:27:00;;;;;;;8.88;3.53;;;8.20;69.30;;;;;;5039772;28;20351;-62
2023/04/14 02:29:29;;;;;;;6.60;3.38;;;8.20;69.30;;;;;;5033910;28;20025;-62
2023/04/14 02:32:04;;;;;;;7.35;3.35;;;8.20;69.40;;;;;;5043321;28;20043;-62
2023/04/14 02:34:35;;;;;;;7.72;3.25;;;8.10;69.40;;;;;;5036749;28;20025;-62
2023/04/14 02:37:07;;;;;;;8.73;3.38;;;8.10;69.40;;;;;;5036546;28;20362;-62
2023/04/14 02:39:40;;;;;;;9.43;3.75;;;8.10;69.50;;;;;;5033579;28;20033;-62
2023/04/14 02:42:17;;;;;;;8.90;3.28;;;8.10;69.50;;;;;;5044433;28;20390;-64
2023/04/14 02:44:48;;;;;;;8.90;3.50;;;8.10;69.50;;;;;;5053290;28;20040;-62
2023/04/14 02:47:22;;;;;;;7.38;3.13;;;8.00;69.50;;;;;;5043429;28;20032;-63
2023/04/14 02:49:51;;;;;;;8.98;3.90;;;8.00;69.50;;;;;;5035521;28;20029;-63
2023/04/14 02:52:23;;;;;;;10.20;3.65;;;8.00;69.50;;;;;;5038771;28;20025;-62
2023/04/14 02:54:49;;;;;;;10.57;4.13;;;8.00;69.50;;;;;;5042437;28;20032;-62
2023/04/14 02:57:18;;;;;;;9.38;3.70;;;8.00;69.60;;;;;;5046346;28;20043;-63
2023/04/14 02:59:47;;;;;;;8.75;3.35;;;7.90;69.60;;;;;;5039566;28;20473;-62
2023/04/14 03:02:15;;;;;;;8.95;4.07;;;7.90;69.60;;;;;;5043532;28;20359;-62
2023/04/14 03:04:45;;;;;;;8.98;4.05;;;7.90;69.70;;;;;;5035339;28;20421;-62
2023/04/14 03:07:25;;;;;;;8.60;3.65;;;7.90;69.80;;;;;;5050046;28;20101;-63
2023/04/14 03:09:51;;;;;;;8.48;3.42;;;7.90;69.80;;;;;;5042032;28;20044;-62
2023/04/14 03:12:18;;;;;;;8.80;4.35;;;7.80;69.80;;;;;;5032404;28;20115;-62
2023/04/14 03:14:46;;;;;;;8.35;3.50;;;7.80;69.80;;;;;;5042320;28;20037;-62
2023/04/14 03:17:14;;;;;;;9.35;4.35;;;7.80;69.80;;;;;;5047935;28;20025;-62
2023/04/14 03:19:42;;;;;;;8.88;3.75;;;7.80;69.90;;;;;;5044079;28;20407;-62
2023/04/14 03:22:09;;;;;;;8.38;4.03;;;7.80;69.90;;;;;;5047537;28;20018;-62
2023/04/14 03:24:37;;;;;;;11.55;5.00;;;7.80;69.90;;;;;;5021375;28;20071;-62
2023/04/14 03:27:12;;;;;;;10.48;4.00;;;7.80;69.90;;;;;;5052313;28;20049;-63
2023/04/14 03:29:46;;;;;;;6.80;3.65;;;7.80;70.00;;;;;;5030534;28;20471;-62
2023/04/14 03:32:14;;;;;;;10.80;3.95;;;7.80;70.00;;;;;;5046007;28;20087;-62
2023/04/14 03:34:41;;;;;;;10.63;4.35;;;7.70;70.00;;;;;;5034048;28;20464;-63
2023/04/14 03:37:08;;;;;;;11.32;3.97;;;7.70;70.10;;;;;;5054276;28;20450;-62
2023/04/14 03:39:37;;;;;;;8.27;3.90;;;7.70;70.10;;;;;;5052159;28;20025;-62
2023/04/14 03:42:09;;;;;;;9.35;4.55;;;7.70;70.10;;;;;;5037936;28;20557;-62
2023/04/14 03:44:37;;;;;;;10.80;4.35;;;7.60;70.10;;;;;;5016062;28;20087;-62
2023/04/14 03:47:06;;;;;;;7.57;3.90;;;7.60;70.10;;;;;;5030875;28;20079;-62
2023/04/14 03:49:37;;;;;;;10.52;4.70;;;7.60;70.20;;;;;;5014104;28;20391;-62
2023/04/14 03:52:06;;;;;;;10.10;4.07;;;7.60;70.20;;;;;;5030682;28;20057;-62
2023/04/14 03:54:35;;;;;;;8.82;4.07;;;7.60;70.20;;;;;;5029552;28;20410;-62
2023/04/14 03:57:05;;;;;;;11.05;4.25;;;7.60;70.20;;;;;;5035462;28;20474;-62
2023/04/14 03:59:32;;;;;;;9.65;4.43;;;7.60;70.30;;;;;;5034270;28;20407;-62
2023/04/14 04:02:01;;;;;;;8.48;4.38;;;7.50;70.30;;;;;;5033590;28;20390;-62
2023/04/14 04:04:29;;;;;;;11.27;4.45;;;7.50;70.30;;;;;;5034542;28;20037;-62
2023/04/14 04:06:57;;;;;;;9.85;4.72;;;7.60;70.30;;;;;;5033483;28;20013;-62
2023/04/14 04:09:25;;;;;;;9.02;4.50;;;7.50;70.30;;;;;;5019556;28;20038;-62
2023/04/14 04:11:51;;;;;;;12.35;4.70;;;7.50;70.40;;;;;;5012611;28;20083;-62
2023/04/14 04:14:20;;;;;;;8.77;4.80;;;7.50;70.40;;;;;;5033628;28;20026;-63
2023/04/14 04:16:50;;;;;;;9.02;5.05;;;7.50;70.50;;;;;;5033259;28;20032;-62
2023/04/14 04:19:22;;;;;;;9.57;4.97;;;7.50;70.50;;;;;;5033944;28;20120;-63
2023/04/14 04:21:50;;;;;;;;;;;7.50;70.50;;;;;;5054406;28;20571;-62
2023/04/14 04:24:18;;;;;;;10.07;4.53;;;7.40;70.40;;;;;;5037173;28;19913;-62
2023/04/14 04:26:45;;;;;;;10.57;5.00;;;7.40;70.50;;;;;;5037222;28;20033;-62
2023/04/14 04:29:11;;;;;;;9.60;5.03;;;7.40;70.50;;;;;;5035718;28;20084;-62
2023/04/14 04:31:39;;;;;;;9.70;5.45;;;7.40;70.50;;;;;;5043588;28;20025;-62
2023/04/14 04:34:06;;;;;;;9.20;4.97;;;7.40;70.50;;;;;;5023758;28;20030;-62
2023/04/14 04:36:36;;;;;;;8.85;5.25;;;7.30;70.50;;;;;;5035506;28;20033;-62
2023/04/14 04:39:02;;;;;;;9.48;4.40;;;7.30;70.50;;;;;;5028618;28;20033;-62
2023/04/14 04:41:31;;;;;;;9.73;4.85;;;7.30;70.60;;;;;;5052880;28;20418;-62
2023/04/14 04:44:00;;;;;;;10.00;5.18;;;7.30;70.60;;;;;;5006475;28;20358;-61
2023/04/14 04:46:53;;;;;;;10.93;5.10;;;7.30;70.70;;;;;;5037411;28;20108;-62
2023/04/14 04:49:22;;;;;;;10.45;5.05;;;7.30;70.70;;;;;;5033269;28;20380;-62
2023/04/14 04:51:48;;;;;;;12.38;5.25;;;7.30;70.70;;;;;;5050290;28;20053;-61
2023/04/14 04:54:16;;;;;;;10.07;5.18;;;7.30;70.70;;;;;;5045429;28;20051;-62
2023/04/14 04:56:42;;;;;;;11.10;5.30;;;7.30;70.70;;;;;;5055199;28;20115;-60
2023/04/14 04:59:08;;;;;;;9.27;4.65;;;7.30;70.60;;;;;;5042055;28;20136;-68
2023/04/14 05:01:34;;;;;;;9.68;5.38;;;7.30;70.60;;;;;;5041822;28;20418;-68
2023/04/14 05:04:00;;;;;;;9.80;5.20;;;7.30;70.60;;;;;;5044936;28;20091;-68
2023/04/14 05:06:27;;;;;;;13.45;6.18;;;7.40;70.60;;;;;;5033205;28;20029;-69
2023/04/14 05:08:56;;;;;;;9.88;5.70;;;7.40;70.50;;;;;;5026302;28;20446;-69
2023/04/14 05:11:22;;;;;;;11.40;5.82;;;7.40;70.50;;;;;;5033301;28;20034;-71
2023/04/14 05:13:47;;;;;;;10.25;5.45;;;7.40;70.50;;;;;;5045437;28;20025;-69
2023/04/14 05:16:14;;;;;;;11.75;5.18;;;7.40;70.50;;;;;;5016004;28;20470;-69
2023/04/14 05:18:40;;;;;;;11.10;5.35;;;7.40;70.50;;;;;;5046258;28;20037;-69
2023/04/14 05:21:14;;;;;;;11.35;5.28;;;7.40;70.50;;;;;;5038333;28;20060;-69
2023/04/14 05:23:42;;;;;;;11.70;5.68;;;7.40;70.60;;;;;;5051836;28;20029;-69
2023/04/14 05:26:09;;;;;;;11.35;6.15;;;7.40;70.60;;;;;;5040466;28;20529;-68
2023/04/14 05:28:35;;;;;;;9.40;5.40;;;7.40;70.70;;;;;;5050175;28;20029;-68
2023/04/14 05:31:01;;;;;;;11.05;5.53;;;7.40;70.70;;;;;;5044836;28;20365;-67
2023/04/14 05:33:27;;;;;;;9.88;5.13;;;7.50;70.70;;;;;;5047403;28;20044;-67
2023/04/14 05:35:52;;;;;;;11.50;5.78;;;7.50;70.70;;;;;;5048519;28;20044;-68
2023/04/14 05:38:19;;;;;;;11.77;6.57;;;7.60;70.70;;;;;;5028604;28;20040;-66
2023/04/14 05:40:46;;;;;;;10.13;5.47;;;7.60;70.50;;;;;;5052115;28;20032;-67
2023/04/14 05:43:13;;;;;;;12.52;6.00;;;7.60;70.50;;;;;;5038038;28;20115;-67
2023/04/14 05:45:39;;;;;;;10.93;5.80;;;7.70;70.50;;;;;;5024072;28;20026;-68
2023/04/14 05:48:05;;;;;;;9.65;6.22;;;7.80;70.40;;;;;;5054465;28;20366;-68
2023/04/14 05:50:32;;;;;;;11.93;6.45;;;7.80;70.30;;;;;;5054957;28;20021;-66
2023/04/14 05:52:58;;;;;;;11.75;6.43;;;8.00;70.20;;;;;;5034703;28;20032;-67
2023/04/14 05:55:25;;;;;;;10.65;6.03;;;8.30;69.80;;;;;;5039040;28;20108;-67
2023/04/14 05:57:51;;;;;;;10.15;5.43;;;8.70;69.00;;;;;;5037711;28;20029;-68
2023/04/14 06:00:17;;;;;;;10.02;5.20;;;8.90;68.40;;;;;;5032689;28;20064;-67
2023/04/14 06:02:45;;;;;;;10.20;5.70;;;9.30;67.70;;;;;;5038584;28;20031;-67
2023/04/14 06:05:11;;;;;;;11.48;5.53;;;9.60;67.10;;;;;;5047218;28;20041;-67
2023/04/14 06:07:38;;;;;;;10.18;5.32;;;9.80;66.60;;;;;;5029483;28;20025;-68
2023/04/14 06:10:04;;;;;;;9.55;5.55;;;9.90;66.10;;;;;;5031179;28;20029;-68
2023/04/14 06:12:30;;;;;;;11.13;5.95;;;10.00;66.00;;;;;;5035071;28;20079;-68
2023/04/14 06:14:55;;;;;;;10.88;5.10;;;10.10;65.90;;;;;;5025970;28;20469;-69
2023/04/14 06:17:21;;;;;;;12.63;5.95;;;10.40;65.50;;;;;;5034921;28;20502;-69
2023/04/14 06:19:47;;;;;;;11.68;6.63;;;10.80;64.80;;;;;;5053689;28;20090;-69
2023/04/14 06:22:18;;;;;;;12.48;5.45;;;11.50;63.70;;;;;;5034160;28;20136;-67
2023/04/14 06:24:47;;;;;;;9.93;5.22;;;12.30;62.10;;;;;;5032420;28;20021;-67
2023/04/14 06:27:14;;;;;;;10.98;5.00;;;13.00;60.50;;;;;;5033583;28;20037;-66
2023/04/14 06:29:40;;;;;;;8.43;4.85;;;13.60;59.50;;;;;;5034337;28;20078;-66
2023/04/14 06:32:06;;;;;;;13.73;5.10;;;14.00;58.60;;;;;;5032870;28;20057;-66
2023/04/14 06:34:32;;;;;;;13.48;5.30;;;14.10;58.20;;;;;;5031739;28;20418;-68
2023/04/14 06:36:58;;;;;;;15.80;9.15;;;14.10;58.20;;;;;;5031608;28;20026;-68
2023/04/14 06:39:26;;;;;;;20.88;14.40;;;13.90;58.50;;;;;;5033648;28;20072;-68
2023/04/14 06:41:52;;;;;;;17.67;8.27;;;13.70;58.80;;;;;;5032669;28;20030;-67
2023/04/14 06:44:18;;;;;;;15.50;9.07;;;13.50;59.00;;;;;;5030644;28;20044;-66
2023/04/14 06:46:44;;;;;;;17.73;10.27;;;13.30;59.10;;;;;;5033393;28;20033;-66
2023/04/14 06:49:10;;;;;;;16.75;10.68;;;13.20;59.40;;;;;;5040950;28;20044;-65
2023/04/14 06:51:36;;;;;;;13.40;7.40;;;13.10;59.40;;;;;;5045613;28;20060;-66
2023/04/14 06:54:02;;;;;;;16.20;8.73;;;13.20;59.40;;;;;;5026467;28;20112;-66
2023/04/14 06:56:28;;;;;;;31.15;21.60;;;13.20;59.10;;;;;;5030976;28;20033;-67
2023/04/14 06:58:53;;;;;;;16.80;10.18;;;13.30;59.00;;;;;;5031322;28;20120;-66
2023/04/14 07:01:19;;;;;;;12.10;6.82;;;13.30;58.90;;;;;;5032201;28;20027;-67
2023/04/14 07:03:45;;;;;;;10.23;5.47;;;13.30;58.80;;;;;;5031493;28;20421;-67
2023/04/14 07:06:15;;;;;;;14.20;4.60;;;13.30;58.70;;;;;;5033017;28;20112;-68
2023/04/14 07:08:42;;;;;;;10.65;4.53;;;13.30;58.40;;;;;;5032527;28;20030;-67
2023/04/14 07:11:09;;;;;;;12.18;4.85;;;13.30;58.30;;;;;;5033716;28;20057;-67
2023/04/14 07:13:35;;;;;;;11.40;4.50;;;13.40;58.30;;;;;;5033552;28;20033;-67
2023/04/14 07:16:02;;;;;;;9.93;4.35;;;13.50;58.10;;;;;;5032579;28;20080;-67
2023/04/14 07:18:29;;;;;;;8.93;4.57;;;13.50;57.90;;;;;;5022325;28;20052;-67
2023/04/14 07:20:55;;;;;;;10.27;4.60;;;13.60;57.80;;;;;;5033672;28;20026;-66
2023/04/14 07:23:21;;;;;;;8.10;3.80;;;13.70;57.50;;;;;;5033345;28;20447;-67
2023/04/14 07:25:52;;;;;;;9.68;3.92;;;13.90;57.30;;;;;;5031710;28;20028;-67
2023/04/14 07:28:20;;;;;;;8.50;4.00;;;14.10;56.90;;;;;;5034088;28;20037;-67
2023/04/14 07:30:46;;;;;;;10.73;3.88;;;14.20;56.70;;;;;;5036326;28;20097;-67
2023/04/14 07:33:12;;;;;;;11.35;3.33;;;14.30;56.40;;;;;;5035197;28;20105;-68
2023/04/14 07:35:38;;;;;;;10.88;3.60;;;14.40;56.20;;;;;;5031883;28;20021;-67
2023/04/14 07:38:04;;;;;;;8.15;3.65;;;14.50;55.90;;;;;;5035915;28;20072;-67
2023/04/14 07:40:30;;;;;;;11.48;3.85;;;14.60;55.80;;;;;;5034999;28;20343;-67
2023/04/14 07:42:56;;;;;;;8.38;3.88;;;14.70;55.80;;;;;;5035278;28;20051;-68
2023/04/14 07:45:22;;;;;;;8.75;3.70;;;14.70;55.60;;;;;;5021610;28;20419;-67
2023/04/14 07:47:48;;;;;;;7.38;3.60;;;14.80;55.60;;;;;;5046186;28;20035;-68
2023/04/14 07:50:14;;;;;;;10.63;3.92;;;14.90;55.50;;;;;;5039313;28;20017;-69
2023/04/14 07:52:40;;;;;;;9.55;3.28;;;15.10;55.40;;;;;;5045636;28;20056;-68
2023/04/14 07:55:06;;;;;;;10.15;4.07;;;15.20;55.30;;;;;;5051759;28;20087;-68
2023/04/14 07:57:35;;;;;;;9.70;3.75;;;15.40;55.00;;;;;;5041181;28;20030;-68
2023/04/14 08:00:01;;;;;;;10.00;4.25;;;15.50;54.70;;;;;;5051025;28;20041;-68
2023/04/14 08:02:27;;;;;;;11.90;4.18;;;15.70;54.50;;;;;;5045030;28;20088;-68
2023/04/14 08:04:53;;;;;;;8.38;3.75;;;15.90;54.30;;;;;;5056544;28;20069;-68
2023/04/14 08:07:18;;;;;;;8.98;3.30;;;16.00;54.00;;;;;;5035904;28;20052;-68
2023/04/14 08:09:45;;;;;;;9.23;3.13;;;16.10;53.80;;;;;;5055495;28;20033;-68
2023/04/14 08:12:10;;;;;;;11.07;3.00;;;16.20;54.20;;;;;;5045003;28;20091;-68
2023/04/14 08:14:36;;;;;;;7.85;2.80;;;16.30;53.40;;;;;;5051263;28;20445;-68
2023/04/14 08:17:02;;;;;;;7.38;2.67;;;16.50;53.10;;;;;;5039141;28;20040;-68
2023/04/14 08:19:29;;;;;;;7.85;3.08;;;16.50;52.80;;;;;;5056228;28;20159;-68
2023/04/14 08:21:55;;;;;;;7.30;2.70;;;16.60;52.60;;;;;;5055299;28;20408;-68
2023/04/14 08:24:21;;;;;;;9.63;2.70;;;16.70;52.60;;;;;;5056636;28;20017;-68
2023/04/14 08:26:48;;;;;;;11.65;2.83;;;16.80;52.30;;;;;;5056037;28;20093;-68
2023/04/14 08:29:14;;;;;;;8.30;2.80;;;16.90;52.00;;;;;;5050690;28;20466;-69
2023/04/14 08:31:40;;;;;;;10.10;2.90;;;16.90;51.70;;;;;;5056267;28;20106;-69
2023/04/14 08:34:06;;;;;;;7.60;2.70;;;16.90;51.60;;;;;;5055897;28;20159;-68
2023/04/14 08:36:31;;;;;;;6.65;2.22;;;17.00;51.60;;;;;;5054933;28;20158;-68
2023/04/14 08:39:00;;;;;;;9.07;2.50;;;17.00;51.40;;;;;;5052582;28;20503;-68
2023/04/14 08:41:29;;;;;;;7.60;2.53;;;17.10;51.20;;;;;;5056128;28;20107;-69
2023/04/14 08:43:55;;;;;;;9.57;2.58;;;17.10;51.20;;;;;;5056199;28;20086;-68
2023/04/14 08:46:24;;;;;;;6.00;2.03;;;17.20;51.10;;;;;;5055975;28;20020;-68
2023/04/14 08:48:56;;;;;;;7.20;2.70;;;17.30;50.90;;;;;;5049962;28;20029;-68
2023/04/14 08:51:32;;;;;;;;;;;17.40;50.70;;;;;;5056314;28;20125;-68
2023/04/14 08:54:00;;;;;;;6.43;1.98;;;17.50;50.80;;;;;;5055318;28;19908;-69
2023/04/14 08:56:29;;;;;;;6.07;2.22;;;17.60;50.40;;;;;;5055652;28;20070;-69
2023/04/14 08:58:55;;;;;;;8.10;2.55;;;17.60;50.10;;;;;;5045486;28;20044;-68
2023/04/14 09:01:22;;;;;;;10.60;2.30;;;17.50;50.00;;;;;;5040895;28;20104;-68
2023/04/14 09:03:49;;;;;;;7.05;2.25;;;17.60;50.10;;;;;;5055281;28;20029;-69
2023/04/14 09:06:16;;;;;;;7.13;2.42;;;17.70;50.00;;;;;;5055111;28;20068;-69
2023/04/14 09:08:43;;;;;;;7.18;2.28;;;17.80;49.70;;;;;;5050374;28;20028;-69
2023/04/14 09:11:10;;;;;;;10.15;2.30;;;17.90;49.50;;;;;;5040135;28;20039;-68
2023/04/14 09:13:37;;;;;;;8.85;2.22;;;17.90;49.20;;;;;;5055187;28;20036;-68
2023/04/14 09:16:03;;;;;;;9.18;2.42;;;17.90;48.80;;;;;;5055259;28;20420;-69
2023/04/14 09:18:30;;;;;;;7.15;1.73;;;17.90;48.60;;;;;;5050138;28;21269;-69
2023/04/14 09:20:57;;;;;;;6.68;2.05;;;18.00;48.40;;;;;;5047189;28;20044;-69
2023/04/14 09:23:24;;;;;;;6.22;2.10;;;18.10;48.30;;;;;;5055395;28;20171;-69
2023/04/14 09:25:50;;;;;;;7.05;1.90;;;18.20;48.00;;;;;;5054240;28;20029;-68
2023/04/14 09:28:16;;;;;;;5.50;2.00;;;18.30;47.90;;;;;;5039791;28;20045;-68
2023/04/14 09:30:42;;;;;;;7.95;1.80;;;18.30;47.70;;;;;;5042352;28;20037;-67
2023/04/14 09:33:20;;;;;;;5.78;1.75;;;18.30;47.30;;;;;;5030798;28;20029;-68
2023/04/14 09:35:48;;;;;;;7.63;2.00;;;18.40;46.80;;;;;;5054866;28;20025;-67
2023/04/14 09:38:15;;;;;;;5.75;1.80;;;18.50;47.00;;;;;;5047453;28;20056;-67
2023/04/14 09:40:43;;;;;;;5.20;1.40;;;18.50;46.80;;;;;;5054951;28;20460;-68
2023/04/14 09:43:22;;;;;;;5.55;1.80;;;18.70;46.60;;;;;;5054594;28;20043;-67
2023/04/14 09:45:48;;;;;;;5.60;1.48;;;18.70;46.30;;;;;;5052047;28;20040;-67
2023/04/14 09:48:13;;;;;;;5.55;1.55;;;18.80;46.20;;;;;;5049101;28;20033;-68
2023/04/14 09:51:06;;;;;;;6.53;1.80;;;18.80;45.90;;;;;;5032541;28;20025;-67
2023/04/14 09:53:34;;;;;;;4.97;1.48;;;18.80;45.40;;;;;;5036994;28;20439;-68
2023/04/14 09:56:05;;;;;;;4.30;1.27;;;18.80;45.30;;;;;;5018170;28;20062;-69
2023/04/14 09:58:35;;;;;;;7.28;1.70;;;18.90;45.00;;;;;;5034761;28;20052;-68
2023/04/14 10:01:13;;;;;;;5.27;1.13;;;18.90;44.80;;;;;;5033621;28;20060;-68
2023/04/14 10:03:41;;;;;;;6.15;1.75;;;18.90;44.30;;;;;;5034510;28;20347;-68
2023/04/14 10:06:09;;;;;;;4.32;1.35;;;18.80;44.40;;;;;;5034395;28;20040;-67
2023/04/14 10:08:41;;;;;;;8.00;1.80;;;18.70;44.40;;;;;;5033228;28;20025;-67
2023/04/14 10:11:14;;;;;;;4.82;1.25;;;18.80;44.10;;;;;;5032485;28;20052;-67
2023/04/14 10:13:41;;;;;;;4.15;1.17;;;18.80;43.80;;;;;;5032756;28;20044;-68
2023/04/14 10:16:07;;;;;;;3.45;1.33;;;18.80;43.80;;;;;;5033384;28;20025;-68
2023/04/14 10:18:33;;;;;;;4.63;1.20;;;18.90;43.70;;;;;;5033480;28;20018;-68
2023/04/14 10:21:01;;;;;;;3.20;1.38;;;19.00;43.40;;;;;;5034255;28;20035;-68
2023/04/14 10:23:26;;;;;;;4.53;1.27;;;19.10;43.10;;;;;;5035596;28;20031;-68
2023/04/14 10:25:54;;;;;;;4.53;1.17;;;19.00;43.00;;;;;;5036820;28;20108;-68
2023/04/14 10:28:21;;;;;;;4.93;1.45;;;19.00;42.80;;;;;;5036410;28;20025;-68
2023/04/14 10:30:49;;;;;;;5.43;1.65;;;19.00;42.50;;;;;;5036022;28;20159;-68
2023/04/14 10:33:14;;;;;;;7.13;1.48;;;18.90;42.40;;;;;;5034177;28;20044;-68
2023/04/14 10:35:46;;;;;;;5.93;1.55;;;18.50;42.60;;;;;;5034658;28;20021;-68
2023/04/14 10:38:13;;;;;;;6.43;1.30;;;18.10;42.90;;;;;;5032293;28;20067;-68
2023/04/14 10:40:51;;;;;;;5.32;1.52;;;18.00;43.30;;;;;;5046004;28;20396;-69
2023/04/14 10:43:17;;;;;;;3.75;1.10;;;18.00;43.20;;;;;;5054046;28;20033;-69
2023/04/14 10:45:56;;;;;;;4.68;1.27;;;18.10;43.30;;;;;;5053910;28;20032;-69
2023/04/14 10:48:31;;;;;;;3.92;1.15;;;18.10;43.00;;;;;;5050727;28;20025;-69
2023/04/14 10:51:05;;;;;;;4.93;1.40;;;18.20;43.20;;;;;;5041712;28;20044;-69
2023/04/14 10:53:54;;;;;;;6.03;1.17;;;18.30;42.70;;;;;;5054027;28;20100;-68
2023/04/14 10:56:24;;;;;;;4.45;1.40;;;18.40;42.20;;;;;;5054054;28;20362;-68
2023/04/14 10:58:54;;;;;;;4.10;1.20;;;18.60;42.10;;;;;;5050876;28;20422;-68
2023/04/14 11:01:30;;;;;;;5.07;1.50;;;18.70;42.00;;;;;;5034493;28;20116;-68
2023/04/14 11:04:09;;;;;;;5.95;1.50;;;18.80;41.70;;;;;;5045497;28;20036;-69
2023/04/14 11:06:51;;;;;;;4.72;1.33;;;18.60;41.90;;;;;;5041371;28;20423;-68
2023/04/14 11:09:36;;;;;;;5.75;1.40;;;18.40;41.90;;;;;;5057755;28;20029;-68
2023/04/14 11:12:20;;;;;;;5.35;1.30;;;18.20;41.90;;;;;;5057603;28;20029;-69
2023/04/14 11:14:46;;;;;;;5.03;1.25;;;17.90;42.00;;;;;;5049519;28;20029;-69
2023/04/14 11:17:19;;;;;;;3.25;1.13;;;18.00;42.30;;;;;;5048385;28;20352;-68
2023/04/14 11:19:45;;;;;;;6.43;1.40;;;18.20;42.00;;;;;;5052710;28;20033;-69
2023/04/14 11:22:12;;;;;;;5.05;1.40;;;18.10;42.00;;;;;;5038197;28;20095;-68
2023/04/14 11:24:38;;;;;;;6.85;1.33;;;18.30;42.10;;;;;;5050697;28;20031;-68
2023/04/14 11:27:04;;;;;;;6.75;1.38;;;18.40;41.90;;;;;;5027360;28;20021;-68
2023/04/14 11:29:30;;;;;;;4.88;1.70;;;18.30;41.90;;;;;;5055671;28;20362;-68
2023/04/14 11:32:05;;;;;;;5.55;1.33;;;18.30;41.80;;;;;;5048027;28;20025;-68
2023/04/14 11:34:32;;;;;;;6.85;1.48;;;18.40;41.70;;;;;;5041753;28;20029;-68
2023/04/14 11:37:00;;;;;;;5.43;1.38;;;18.40;42.40;;;;;;5047664;28;20134;-68
2023/04/14 11:39:28;;;;;;;3.80;1.30;;;18.10;42.00;;;;;;5039484;28;20033;-68
2023/04/14 11:41:55;;;;;;;5.90;1.85;;;17.90;42.50;;;;;;5057721;28;20021;-68
2023/04/14 11:44:21;;;;;;;3.90;1.48;;;17.90;42.50;;;;;;5057405;28;20025;-68
2023/04/14 11:46:49;;;;;;;5.18;1.50;;;18.10;42.20;;;;;;5041635;28;20464;-68
2023/04/14 11:49:14;;;;;;;5.28;1.63;;;18.30;42.00;;;;;;5057410;28;20028;-68
2023/04/14 11:51:40;;;;;;;4.38;1.60;;;18.40;41.90;;;;;;5056808;28;20108;-68
2023/04/14 11:54:06;;;;;;;6.18;1.95;;;18.50;42.00;;;;;;5057166;28;20040;-68
2023/04/14 11:56:32;;;;;;;7.90;1.95;;;18.50;42.20;;;;;;5046849;28;20048;-68
2023/04/14 11:59:02;;;;;;;6.28;1.60;;;18.30;42.50;;;;;;5055786;28;20025;-68
2023/04/14 12:01:29;;;;;;;7.60;1.90;;;18.40;42.60;;;;;;5056894;28;20021;-68
2023/04/14 12:03:56;;;;;;;6.53;1.98;;;18.40;42.40;;;;;;5056736;28;20186;-68
2023/04/14 12:06:22;;;;;;;4.97;1.60;;;18.40;42.30;;;;;;5050189;28;20497;-68
2023/04/14 12:08:52;;;;;;;5.13;1.58;;;18.40;43.00;;;;;;5045263;28;20059;-68
2023/04/14 12:11:18;;;;;;;5.50;1.77;;;18.50;42.50;;;;;;5056336;28;20044;-68
2023/04/14 12:13:46;;;;;;;6.25;2.08;;;18.50;42.50;;;;;;5056172;28;20124;-68
2023/04/14 12:16:13;;;;;;;6.68;2.20;;;18.50;42.50;;;;;;5056818;28;20048;-68
2023/04/14 12:18:39;;;;;;;5.30;1.65;;;18.40;42.70;;;;;;5033687;28;20455;-68
2023/04/14 12:21:05;;;;;;;5.60;1.60;;;18.20;42.90;;;;;;5045966;28;20036;-69
2023/04/14 12:23:35;;;;;;;4.28;1.70;;;18.00;43.10;;;;;;5047783;28;20025;-68
2023/04/14 12:26:02;;;;;;;6.07;1.60;;;17.80;43.40;;;;;;5034337;28;20025;-68
2023/04/14 12:28:28;;;;;;;7.22;2.17;;;17.50;43.60;;;;;;5029117;28;20435;-69
2023/04/14 12:31:01;;;;;;;5.22;1.83;;;17.40;43.70;;;;;;5051998;28;20055;-69
2023/04/14 12:33:27;;;;;;;6.05;1.88;;;17.30;43.70;;;;;;5034666;28;20068;-68
2023/04/14 12:36:06;;;;;;;5.82;1.77;;;17.30;43.70;;;;;;5034800;28;20030;-66
2023/04/14 12:38:33;;;;;;;8.45;2.08;;;17.10;43.40;;;;;;5042424;28;20028;-66
2023/04/14 12:40:59;;;;;;;7.63;2.05;;;17.00;43.60;;;;;;5055050;28;20036;-67
2023/04/14 12:43:33;;;;;;;4.85;1.65;;;17.10;43.80;;;;;;5042331;28;20036;-66
2023/04/14 12:45:59;;;;;;;6.60;2.03;;;17.20;43.80;;;;;;5044264;28;20022;-66
2023/04/14 12:48:45;;;;;;;5.70;1.80;;;17.20;43.60;;;;;;5042489;28;20129;-66
2023/04/14 12:51:16;;;;;;;8.25;2.83;;;17.20;43.60;;;;;;5034618;28;20029;-66
2023/04/14 12:53:43;;;;;;;6.28;1.70;;;17.20;43.60;;;;;;5067592;28;20029;-66
2023/04/14 12:56:18;;;;;;;6.82;2.05;;;17.10;43.60;;;;;;5042637;28;20106;-66